Nearby METAR Reports

 

KMTN - Baltimore/Martin, Maryland, USA
Distance from station: SSE 8mi, 13km
Updated: Wed, 23-Apr-2014 2:51am EDT
Clear
Clear
 Wind from W
Wind: W 18 mph , 30 km/h
Temperature: 52°F , 11°C
Dew Point: 37°F , 3°C
Humidity: 58%
Barometer: 29.68 inHg , 1005.1 hPa
Clouds: Clear
Visibility: 10 miles , 16 km
2014/04/23 06:51 KMTN 230651Z AUTO 28016KT 10SM CLR 11/03 A2968 RMK AO2
KDMH - Baltimore/Dwntwn, Maryland, USA
Distance from station: SW 12mi, 19km
Updated: Wed, 23-Apr-2014 2:54am EDT

 
Temperature: 54°F , 12°C
Dew Point: 34°F , 1°C
Humidity: 47%
Barometer: 29.67 inHg , 1004.7 hPa
2014/04/23 06:54 KDMH 230654Z AUTO 12/01 A2967 RMK AO1 SLP046 T01170011
 
KBWI - Balto/Wash Intl, Maryland, USA
Distance from station: SSW 20mi, 33km
Updated: Wed, 23-Apr-2014 2:54am EDT
Partly cloudy
Partly cloudy
 Wind from WNW
Wind: WNW 14 mph , 22 km/h, Gust: 22 mph , 35 km/h
Temperature: 52°F , 11°C
Dew Point: 34°F , 1°C
Humidity: 50%
Barometer: 29.67 inHg , 1004.7 hPa
Clouds: Partly cloudy
Visibility: 10 miles , 16 km
Cloud details: Partly cloudy 24000 ft
2014/04/23 06:54 KBWI 230654Z 29012G19KT 10SM SCT240 11/01 A2967 RMK AO2 SLP046 T01110011
KDMW - Carroll Cnty, Maryland, USA
Distance from station: WNW 30mi, 48km
Updated: Wed, 23-Apr-2014 2:50am EDT
Clear
Clear
 Wind from WNW
Wind: WNW 7 mph , 11 km/h
Temperature: 46°F , 8°C
Wind Chill: 42°F , 6°C
Dew Point: 36°F , 2°C
Humidity: 66%
Barometer: 29.71 inHg , 1006.1 hPa
Clouds: Clear
Visibility: 10 miles , 16 km
2014/04/23 06:50 KDMW 230650Z AUTO 30006KT 10SM CLR 08/02 A2971 RMK AO2
 
KNAK - Annapolis/Naval, Maryland, USA
Distance from station: S 30mi, 48km
Updated: Wed, 23-Apr-2014 2:54am EDT
Few Clouds
Few Clouds
 Wind from NW
Wind: NW 15 mph , 24 km/h, Gust: 22 mph , 35 km/h
Temperature: 55°F , 13°C
Dew Point: 37°F , 3°C
Humidity: 51%
Barometer: 29.67 inHg , 1004.7 hPa
Clouds: Few Clouds
Visibility: 10 miles , 16 km
Cloud details: Few Clouds 7500 ft
2014/04/23 06:54 KNAK 230654Z AUTO 31013G19KT 10SM FEW075 13/03 A2967 RMK AO2 SLP050 T01280028
KW29 - Stevensville, Maryland, USA
Distance from station: SSE 31mi, 50km
Updated: Wed, 23-Apr-2014 2:52am EDT
Partly cloudy
Partly cloudy
 Wind from NW
Wind: NW 18 mph , 30 km/h, Gust: 26 mph , 43 km/h
Temperature: 54°F , 12°C
Dew Point: 36°F , 2°C
Humidity: 51%
Barometer: 29.68 inHg , 1005.1 hPa
Clouds: Partly cloudy
Visibility: 10 miles , 16 km
Cloud details: Partly cloudy 7000 ft
2014/04/23 06:52 KW29 230652Z AUTO 31016G23KT 10SM SCT070 12/02 A2968 RMK AO1
 
KCGS - College Park, Maryland, USA
Distance from station: SW 38mi, 61km
Updated: Wed, 23-Apr-2014 2:50am EDT
Clear
Clear
 Wind from NW
Wind: NW 9 mph , 15 km/h, Gust: 16 mph , 26 km/h
Temperature: 54°F , 12°C
Dew Point: 36°F , 2°C
Humidity: 51%
Barometer: 29.69 inHg , 1005.4 hPa
Clouds: Clear
Visibility: 10 miles , 16 km
2014/04/23 06:50 KCGS 230650Z AUTO 32008G14KT 10SM CLR 12/02 A2969 RMK AO1
KGAI - Gaithersburg, Maryland, USA
Distance from station: WSW 40mi, 65km
Updated: Wed, 23-Apr-2014 2:55am EDT
Clear
Clear
 Wind from NW
Wind: NW 20 mph , 31 km/h, Gust: 28 mph , 44 km/h
Temperature: 48°F , 9°C
Wind Chill: 41°F , 5°C
Dew Point: 34°F , 1°C
Humidity: 58%
Barometer: 29.72 inHg , 1006.4 hPa
Clouds: Clear
Visibility: 10 miles , 16 km
2014/04/23 06:55 KGAI 230655Z AUTO 31017G24KT 10SM CLR 09/01 A2972 RMK AO1
 
KTHV - York, Pennsylvania, USA
Distance from station: NNW 40mi, 65km
Updated: Wed, 23-Apr-2014 2:53am EDT
Clear
Clear
 Wind from W
Wind: W 8 mph , 13 km/h
Temperature: 46°F , 8°C
Wind Chill: 42°F , 6°C
Dew Point: 34°F , 1°C
Humidity: 62%
Barometer: 29.69 inHg , 1005.4 hPa
Clouds: Clear
Visibility: 10 miles , 16 km
2014/04/23 06:53 KTHV 230653Z AUTO 28007KT 10SM CLR 08/01 A2969 RMK AO2 SLP057 T00780011
KFDK - Frederick, Maryland, USA
Distance from station: W 47mi, 75km
Updated: Wed, 23-Apr-2014 2:50am EDT
Clear
Clear
 Wind from WNW
Wind: WNW 5 mph , 7 km/h
Temperature: 46°F , 8°C
Wind Chill: 44°F , 7°C
Dew Point: 37°F , 3°C
Humidity: 71%
Barometer: 29.75 inHg , 1007.5 hPa
Clouds: Clear
Visibility: 10 miles , 16 km
2014/04/23 06:50 KFDK 230650Z AUTO 30004KT 10SM CLR 08/03 A2975 RMK AO2
 
KESN - Easton/Newnam, Maryland, USA
Distance from station: SSE 48mi, 78km
Updated: Wed, 23-Apr-2014 3:02am EDT
Overcast
Overcast
 Wind from NNW
Wind: NNW 18 mph , 30 km/h, Gust: 25 mph , 41 km/h
Temperature: 57°F , 14°C
Dew Point: 39°F , 4°C
Humidity: 51%
Barometer: 29.71 inHg , 1006.1 hPa
Clouds: Overcast
Visibility: 10 miles , 16 km
Cloud details: Overcast 5000 ft
2014/04/23 07:02 KESN 230702Z AUTO 33016G22KT 10SM OVC050 14/04 A2971 RMK AO2 T01360043
KDCA - Washington/Natl, Washington D.c., USA
Distance from station: SW 49mi, 79km
Updated: Wed, 23-Apr-2014 2:52am EDT
Few Clouds
Few Clouds
 Wind from NNW
Wind: NNW 13 mph , 20 km/h, Gust: 24 mph , 39 km/h
Temperature: 55°F , 13°C
Dew Point: 36°F , 2°C
Humidity: 47%
Barometer: 29.70 inHg , 1005.8 hPa
Clouds: Few Clouds
Visibility: 10 miles , 16 km
Cloud details: Few Clouds 25000 ft
2014/04/23 06:52 KDCA 230652Z 33011G21KT 10SM FEW250 13/02 A2970 RMK AO2 PK WND 34028/0619 SLP054 T01280022
 
KLNS - Lancaster, Pennsylvania, USA
Distance from station: N 49mi, 79km
Updated: Wed, 23-Apr-2014 2:53am EDT
Clear
Clear
 Wind from WNW
Wind: WNW 16 mph , 26 km/h, Gust: 26 mph , 43 km/h
Temperature: 46°F , 8°C
Wind Chill: 39°F , 4°C
Dew Point: 32°F , 0°C
Humidity: 57%
Barometer: 29.65 inHg , 1004.1 hPa
Clouds: Clear
Visibility: 10 miles , 16 km
2014/04/23 06:53 KLNS 230653Z 30014G23KT 10SM CLR 08/00 A2965 RMK AO2 PK WND 30026/0631 SLP041 T00780000
KILG - Wilmington, Delaware, USA
Distance from station: ENE 50mi, 81km
Updated: Wed, 23-Apr-2014 2:51am EDT
Few Clouds
Few Clouds
 Wind from NW
Wind: NW 20 mph , 31 km/h, Gust: 31 mph , 50 km/h
Temperature: 52°F , 11°C
Dew Point: 34°F , 1°C
Humidity: 50%
Barometer: 29.64 inHg , 1003.7 hPa
Clouds: Few Clouds
Visibility: 10 miles , 16 km
Cloud details: Few Clouds 6500 ft
2014/04/23 06:51 KILG 230651Z 31017G27KT 10SM FEW065 11/01 A2964 RMK AO2 PK WND 29033/0629 SLP036 T01060011